Time;durP1;ratioP1;P1;durP2;ratioP2;P2;SDS_P1;SDS_P2;PMS_P1;PMS_P2;Temp;Humidity;BMP_temperature;BMP_pressure;BME280_temperature;BME280_humidity;BME280_pressure;Samples;Min_cycle;Max_cycle;Signal;HPM_P1;HPM_P2
2021/06/20 00:00:51;;;;;;;11.38;7.75;;;29.50;85.50;;;;;;5073154;28;20230;-75
2021/06/20 00:03:17;;;;;;;11.98;8.90;;;29.50;85.60;;;;;;5037554;28;20235;-75
2021/06/20 00:05:54;;;;;;;9.38;8.32;;;29.40;86.00;;;;;;5048229;28;20700;-75
2021/06/20 00:08:21;;;;;;;10.05;8.82;;;29.40;86.80;;;;;;5041488;28;20241;-75
2021/06/20 00:10:49;;;;;;;9.38;7.80;;;29.40;87.30;;;;;;5046009;28;20237;-75
2021/06/20 00:13:15;;;;;;;10.73;8.07;;;29.40;86.80;;;;;;5046258;28;20369;-75
2021/06/20 00:15:41;;;;;;;9.73;8.88;;;29.30;87.90;;;;;;5034876;28;20624;-75
2021/06/20 00:18:07;;;;;;;9.35;8.13;;;29.30;87.90;;;;;;5029939;28;20594;-75
2021/06/20 00:20:37;;;;;;;10.05;9.07;;;29.30;88.00;;;;;;5034820;28;20229;-75
2021/06/20 00:23:04;;;;;;;10.45;8.32;;;29.30;88.00;;;;;;5050288;28;20246;-75
2021/06/20 00:25:29;;;;;;;10.07;8.18;;;29.30;87.80;;;;;;5038408;28;20223;-76
2021/06/20 00:27:56;;;;;;;10.60;7.80;;;29.30;87.80;;;;;;5034869;28;20753;-75
2021/06/20 00:30:25;;;;;;;10.77;8.38;;;29.30;88.20;;;;;;5051808;28;20299;-75
2021/06/20 00:32:52;;;;;;;11.27;8.60;;;29.30;88.70;;;;;;5046476;28;20251;-76
2021/06/20 00:35:18;;;;;;;9.45;8.55;;;29.30;88.60;;;;;;5048428;28;20215;-75
2021/06/20 00:37:44;;;;;;;8.95;8.18;;;29.20;88.80;;;;;;5017725;28;20749;-75
2021/06/20 00:40:11;;;;;;;11.07;8.68;;;29.30;88.90;;;;;;5051302;28;20246;-75
2021/06/20 00:42:37;;;;;;;8.70;7.93;;;29.20;88.90;;;;;;5051566;28;20238;-75
2021/06/20 00:45:04;;;;;;;10.25;8.52;;;29.20;89.30;;;;;;5051131;28;20785;-75
2021/06/20 00:47:30;;;;;;;9.43;8.55;;;29.20;89.40;;;;;;5034831;28;20225;-75
2021/06/20 00:49:56;;;;;;;12.98;8.65;;;29.20;89.50;;;;;;5034589;28;20229;-75
2021/06/20 00:52:22;;;;;;;11.52;9.20;;;29.10;90.10;;;;;;5052633;28;20218;-75
2021/06/20 00:54:48;;;;;;;9.93;9.02;;;29.10;90.70;;;;;;5030863;28;20307;-75
2021/06/20 00:57:17;;;;;;;10.02;8.35;;;29.00;91.10;;;;;;5050427;28;20618;-75
2021/06/20 00:59:43;;;;;;;12.50;8.60;;;29.00;91.30;;;;;;5050076;28;20265;-75
2021/06/20 01:02:11;;;;;;;11.35;9.50;;;28.90;91.30;;;;;;5029472;28;20298;-75
2021/06/20 01:04:38;;;;;;;13.20;9.40;;;28.70;91.50;;;;;;5051612;28;20276;-75
2021/06/20 01:07:04;;;;;;;13.10;9.98;;;28.60;91.50;;;;;;5050065;28;20221;-75
2021/06/20 01:09:30;;;;;;;11.38;8.00;;;28.60;91.60;;;;;;5031521;28;20215;-75
2021/06/20 01:11:56;;;;;;;12.90;9.05;;;28.50;91.90;;;;;;5037525;28;20210;-75
2021/06/20 01:14:22;;;;;;;12.23;7.80;;;28.30;92.30;;;;;;5050633;28;20250;-75
2021/06/20 01:16:50;;;;;;;9.90;8.43;;;28.20;92.00;;;;;;5034811;28;20256;-75
2021/06/20 01:19:19;;;;;;;11.30;8.40;;;28.10;92.10;;;;;;5067281;28;20214;-75
2021/06/20 01:21:45;;;;;;;9.82;7.50;;;28.10;92.20;;;;;;5052099;28;20222;-75
2021/06/20 01:24:10;;;;;;;9.02;7.82;;;28.00;92.20;;;;;;5066832;28;20223;-75
2021/06/20 01:26:36;;;;;;;16.17;7.65;;;27.90;92.30;;;;;;5051221;28;20222;-75
2021/06/20 01:29:04;;;;;;;11.95;6.97;;;27.90;92.30;;;;;;5034144;28;20258;-75
2021/06/20 01:31:32;;;;;;;11.00;7.90;;;27.90;92.20;;;;;;5034767;28;20284;-75
2021/06/20 01:33:57;;;;;;;8.13;6.97;;;27.90;92.30;;;;;;5033366;28;20643;-75
2021/06/20 01:36:23;;;;;;;9.40;6.90;;;27.80;92.20;;;;;;5064479;28;20215;-74
2021/06/20 01:38:49;;;;;;;8.80;6.40;;;27.80;92.20;;;;;;5050773;28;20269;-75
2021/06/20 01:41:15;;;;;;;7.93;6.23;;;27.70;92.10;;;;;;5050730;28;20214;-75
2021/06/20 01:43:41;;;;;;;13.40;6.60;;;27.60;92.10;;;;;;5050428;28;20902;-75
2021/06/20 01:46:06;;;;;;;7.93;6.50;;;27.60;92.10;;;;;;5050511;28;20222;-74
2021/06/20 01:48:32;;;;;;;10.17;7.00;;;27.60;92.10;;;;;;5037645;28;20710;-75
2021/06/20 01:50:58;;;;;;;9.60;6.23;;;27.60;92.00;;;;;;5037400;28;20218;-75
2021/06/20 01:53:23;;;;;;;10.80;7.03;;;27.60;92.10;;;;;;5034003;28;20306;-75
2021/06/20 01:55:49;;;;;;;9.93;6.30;;;27.70;92.10;;;;;;5051739;28;20261;-75
2021/06/20 01:58:18;;;;;;;12.70;7.17;;;27.70;92.00;;;;;;5037843;28;20271;-75
2021/06/20 02:00:47;;;;;;;8.97;6.50;;;27.70;92.00;;;;;;5042029;28;20219;-75
2021/06/20 02:03:24;;;;;;;8.50;6.20;;;27.70;92.00;;;;;;5064184;28;20438;-75
2021/06/20 02:05:52;;;;;;;7.00;5.37;;;27.60;91.90;;;;;;5023087;28;20452;-75
2021/06/20 02:08:19;;;;;;;8.40;5.37;;;27.60;92.00;;;;;;5048882;28;20644;-75
2021/06/20 02:10:56;;;;;;;9.47;5.90;;;27.50;91.90;;;;;;5021222;28;20496;-75
2021/06/20 02:13:24;;;;;;;7.33;5.67;;;27.50;92.30;;;;;;5048204;28;20225;-75
2021/06/20 02:15:51;;;;;;;8.17;6.10;;;27.50;91.90;;;;;;5036970;28;20524;-75
2021/06/20 02:18:17;;;;;;;12.93;6.53;;;27.40;91.90;;;;;;5001413;28;20465;-75
2021/06/20 02:20:43;;;;;;;9.10;5.40;;;27.30;91.80;;;;;;5028977;28;20480;-75
2021/06/20 02:23:09;;;;;;;7.20;5.60;;;27.30;92.30;;;;;;5046094;28;20222;-75
2021/06/20 02:25:35;;;;;;;7.17;5.20;;;27.20;92.00;;;;;;5071171;28;20207;-75
2021/06/20 02:28:02;;;;;;;9.47;5.33;;;27.10;92.00;;;;;;5038194;28;20214;-75
2021/06/20 02:30:28;;;;;;;9.93;4.90;;;27.00;92.10;;;;;;5046421;28;20442;-75
2021/06/20 02:32:54;;;;;;;5.90;4.90;;;26.90;92.10;;;;;;5016788;28;20527;-75
2021/06/20 02:35:21;;;;;;;7.37;5.37;;;26.80;92.10;;;;;;5012455;28;20466;-75
2021/06/20 02:37:48;;;;;;;7.73;5.03;;;26.80;92.00;;;;;;5017236;28;20454;-74
2021/06/20 02:40:16;;;;;;;7.50;5.70;;;26.80;92.10;;;;;;5053231;28;20456;-75
2021/06/20 02:42:43;;;;;;;7.87;4.63;;;26.70;92.10;;;;;;5037502;28;20445;-74
2021/06/20 02:45:11;;;;;;;6.70;4.47;;;26.60;92.10;;;;;;5033947;28;20457;-74
2021/06/20 02:47:38;;;;;;;8.30;4.30;;;26.50;92.30;;;;;;5052933;28;20837;-75
2021/06/20 02:50:06;;;;;;;7.50;5.10;;;26.40;92.40;;;;;;5053290;28;20534;-75
2021/06/20 02:52:32;;;;;;;7.97;6.00;;;26.40;92.50;;;;;;5017419;28;20527;-75
2021/06/20 02:55:00;;;;;;;6.73;6.03;;;26.40;92.60;;;;;;5033773;28;20447;-75
2021/06/20 02:57:29;;;;;;;10.37;5.27;;;26.30;92.60;;;;;;4997924;28;20215;-75
2021/06/20 02:59:56;;;;;;;11.60;5.37;;;26.30;92.70;;;;;;5029458;28;20457;-75
2021/06/20 03:02:23;;;;;;;5.93;4.23;;;26.30;92.70;;;;;;5033413;28;20445;-75
2021/06/20 03:04:53;;;;;;;5.37;4.53;;;26.30;92.70;;;;;;5037461;28;21036;-75
2021/06/20 03:07:19;;;;;;;5.03;4.10;;;26.30;92.70;;;;;;5059651;28;20973;-75
2021/06/20 03:09:45;;;;;;;7.33;4.73;;;26.40;92.70;;;;;;5050311;28;20492;-75
2021/06/20 03:12:12;;;;;;;6.70;4.43;;;26.40;92.60;;;;;;5015492;28;20451;-75
2021/06/20 03:14:39;;;;;;;4.53;4.20;;;26.30;92.70;;;;;;5028412;28;20220;-75
2021/06/20 03:17:06;;;;;;;6.67;4.60;;;26.30;93.10;;;;;;5043421;28;20453;-75
2021/06/20 03:19:36;;;;;;;7.53;4.50;;;26.30;92.70;;;;;;5053092;28;20441;-75
2021/06/20 03:22:03;;;;;;;4.13;3.73;;;26.30;92.70;;;;;;5036308;28;20453;-74
2021/06/20 03:24:30;;;;;;;8.60;4.27;;;26.10;92.60;;;;;;5049565;28;20438;-75
2021/06/20 03:26:57;;;;;;;4.17;3.77;;;26.10;92.80;;;;;;5036549;28;20800;-75
2021/06/20 03:29:23;;;;;;;4.03;3.60;;;26.00;92.80;;;;;;5036856;28;20541;-74
2021/06/20 03:31:50;;;;;;;3.83;3.50;;;25.90;92.90;;;;;;5036921;28;20480;-75
2021/06/20 03:34:16;;;;;;;4.53;3.70;;;26.00;92.90;;;;;;5051847;28;20472;-75
2021/06/20 03:36:45;;;;;;;8.30;5.43;;;25.90;92.80;;;;;;5052420;28;20549;-74
2021/06/20 03:39:12;;;;;;;4.23;3.70;;;25.90;92.90;;;;;;5032380;28;20468;-75
2021/06/20 03:41:38;;;;;;;5.43;3.47;;;25.90;92.80;;;;;;5033698;28;20450;-75
2021/06/20 03:44:07;;;;;;;6.03;3.63;;;25.80;92.80;;;;;;5048793;28;20900;-75
2021/06/20 03:46:37;;;;;;;5.43;3.50;;;25.80;92.90;;;;;;5046749;28;20446;-75
2021/06/20 03:49:04;;;;;;;8.50;3.60;;;25.80;93.00;;;;;;5048603;28;20462;-75
2021/06/20 03:51:31;;;;;;;10.40;3.90;;;25.80;92.90;;;;;;5050072;28;21059;-75
2021/06/20 03:53:56;;;;;;;6.77;4.17;;;25.70;92.90;;;;;;5032517;28;20490;-75
2021/06/20 03:56:22;;;;;;;5.40;3.87;;;25.80;93.00;;;;;;5049996;28;20506;-75
2021/06/20 03:58:48;;;;;;;11.50;4.23;;;25.70;92.90;;;;;;5033391;28;20709;-74
2021/06/20 04:01:14;;;;;;;4.63;3.80;;;25.70;93.30;;;;;;5048959;28;20219;-75
2021/06/20 04:03:40;;;;;;;5.37;3.50;;;25.60;93.10;;;;;;5044162;28;20231;-75
2021/06/20 04:06:05;;;;;;;6.80;3.57;;;25.50;93.10;;;;;;5040784;28;20637;-75
2021/06/20 04:08:31;;;;;;;5.40;4.33;;;25.50;93.20;;;;;;5001972;28;20288;-75
2021/06/20 04:10:57;;;;;;;6.03;4.00;;;25.30;93.30;;;;;;5029074;28;20212;-75
2021/06/20 04:13:23;;;;;;;4.60;3.47;;;25.40;93.40;;;;;;5032245;28;20231;-75
2021/06/20 04:15:48;;;;;;;3.37;2.80;;;25.40;93.40;;;;;;5036067;28;20592;-75
2021/06/20 04:18:14;;;;;;;5.97;3.30;;;25.40;93.30;;;;;;5035221;28;20842;-75
2021/06/20 04:20:40;;;;;;;3.80;3.50;;;25.50;93.30;;;;;;5035343;28;20218;-75
2021/06/20 04:23:06;;;;;;;4.57;3.50;;;25.60;93.30;;;;;;5035364;28;20281;-75
2021/06/20 04:25:32;;;;;;;6.93;4.60;;;25.60;93.10;;;;;;5036014;28;20210;-75
2021/06/20 04:27:58;;;;;;;4.00;3.23;;;25.60;93.10;;;;;;5033882;28;20229;-75
2021/06/20 04:30:24;;;;;;;11.00;3.53;;;25.60;93.20;;;;;;5035351;28;20948;-75
2021/06/20 04:32:51;;;;;;;6.03;3.80;;;25.50;93.30;;;;;;5035600;28;20712;-74
2021/06/20 04:35:19;;;;;;;4.37;3.97;;;25.50;93.30;;;;;;5031594;28;20446;-75
2021/06/20 04:37:45;;;;;;;3.83;3.53;;;25.60;93.10;;;;;;5028331;28;20473;-75
2021/06/20 04:40:21;;;;;;;3.93;3.63;;;25.70;93.00;;;;;;5051263;28;20944;-74
2021/06/20 04:42:55;;;;;;;4.10;3.70;;;25.70;92.90;;;;;;5035778;28;21104;-75
2021/06/20 04:45:21;;;;;;;5.40;4.10;;;25.70;92.90;;;;;;5030902;28;20457;-75
2021/06/20 04:47:47;;;;;;;3.90;3.30;;;25.80;92.90;;;;;;5015723;28;20457;-75
2021/06/20 04:50:13;;;;;;;4.50;4.10;;;25.80;92.90;;;;;;5057509;28;20310;-75
2021/06/20 04:52:41;;;;;;;4.60;3.73;;;25.80;93.10;;;;;;5046921;28;20230;-75
2021/06/20 04:55:08;;;;;;;4.23;3.87;;;25.70;93.10;;;;;;5039810;28;20214;-75
2021/06/20 04:57:34;;;;;;;4.07;3.70;;;25.80;93.10;;;;;;5047738;28;20480;-75
2021/06/20 05:00:01;;;;;;;7.00;5.40;;;25.80;93.00;;;;;;5017838;28;21012;-75
2021/06/20 05:02:28;;;;;;;4.63;4.20;;;25.80;93.20;;;;;;5024354;28;20287;-75
2021/06/20 05:04:54;;;;;;;7.33;6.27;;;25.80;93.40;;;;;;5031621;28;20461;-75
2021/06/20 05:07:20;;;;;;;5.00;4.50;;;25.70;93.40;;;;;;5050674;28;20449;-75
2021/06/20 05:09:46;;;;;;;6.90;4.50;;;25.70;93.50;;;;;;5034133;28;20914;-74
2021/06/20 05:12:12;;;;;;;5.40;4.90;;;25.70;93.50;;;;;;5004607;28;20210;-75
2021/06/20 05:14:40;;;;;;;4.97;4.47;;;25.70;93.50;;;;;;5047674;28;20234;-74
2021/06/20 05:17:06;;;;;;;5.93;4.90;;;25.80;93.50;;;;;;5047236;28;20862;-76
2021/06/20 05:19:31;;;;;;;5.93;5.37;;;25.80;93.30;;;;;;5004953;28;20488;-75
2021/06/20 05:21:57;;;;;;;5.47;4.67;;;25.90;93.40;;;;;;5033582;28;20222;-74
2021/06/20 05:24:23;;;;;;;6.57;5.10;;;25.90;93.50;;;;;;5030951;28;20231;-75
2021/06/20 05:26:49;;;;;;;9.23;5.70;;;25.80;93.50;;;;;;5050963;28;20218;-74
2021/06/20 05:29:15;;;;;;;7.20;5.63;;;25.90;93.60;;;;;;5033752;28;20536;-75
2021/06/20 05:31:41;;;;;;;6.80;4.70;;;25.90;93.40;;;;;;5033842;28;20295;-74
2021/06/20 05:34:06;;;;;;;6.70;4.70;;;25.90;93.30;;;;;;5050200;28;20651;-74
2021/06/20 05:36:32;;;;;;;4.97;4.50;;;25.90;93.40;;;;;;5034802;28;20718;-75
2021/06/20 05:38:58;;;;;;;5.03;4.60;;;25.90;93.40;;;;;;5034245;28;20234;-74
2021/06/20 05:41:24;;;;;;;7.87;4.80;;;25.90;93.30;;;;;;5030419;28;20224;-75
2021/06/20 05:43:50;;;;;;;5.33;4.83;;;25.80;93.60;;;;;;5047451;28;20223;-75
2021/06/20 05:46:18;;;;;;;5.63;5.00;;;25.90;93.60;;;;;;5049670;28;20788;-75
2021/06/20 05:48:46;;;;;;;5.20;4.70;;;25.80;93.60;;;;;;5046135;28;20219;-75
2021/06/20 05:51:12;;;;;;;4.83;3.90;;;25.80;93.60;;;;;;5033738;28;20440;-75
2021/06/20 05:53:38;;;;;;;4.90;4.50;;;25.90;93.60;;;;;;5050054;28;20609;-75
2021/06/20 05:56:04;;;;;;;6.70;4.87;;;25.90;93.60;;;;;;5049527;28;20221;-75
2021/06/20 05:58:30;;;;;;;7.10;4.20;;;25.90;93.60;;;;;;5033674;28;20670;-75
2021/06/20 06:00:55;;;;;;;6.13;4.00;;;25.80;93.60;;;;;;5033897;28;20458;-74
2021/06/20 06:03:21;;;;;;;5.03;4.50;;;25.70;93.70;;;;;;5051103;28;20222;-75
2021/06/20 06:05:47;;;;;;;4.87;4.47;;;25.60;94.00;;;;;;5050833;28;20213;-75
2021/06/20 06:08:12;;;;;;;4.70;4.10;;;25.50;94.00;;;;;;5015934;28;20709;-75
2021/06/20 06:10:38;;;;;;;6.03;4.10;;;25.50;94.10;;;;;;5033144;28;20218;-75
2021/06/20 06:13:12;;;;;;;3.77;3.47;;;25.50;94.00;;;;;;5025852;28;20219;-75
2021/06/20 06:15:38;;;;;;;4.87;4.10;;;25.50;94.20;;;;;;5046721;28;20250;-74
2021/06/20 06:18:04;;;;;;;3.77;3.47;;;25.60;94.10;;;;;;5049544;28;20538;-75
2021/06/20 06:20:29;;;;;;;3.93;3.50;;;25.60;94.20;;;;;;5016259;28;20234;-75
2021/06/20 06:22:56;;;;;;;3.60;3.30;;;25.60;94.20;;;;;;5035152;28;21230;-74
2021/06/20 06:25:21;;;;;;;4.80;3.53;;;25.50;94.00;;;;;;5049206;28;20229;-74
2021/06/20 06:27:48;;;;;;;3.83;3.33;;;25.50;94.00;;;;;;5047305;28;20461;-75
2021/06/20 06:30:14;;;;;;;3.53;3.23;;;25.50;94.10;;;;;;5053062;28;20230;-75
2021/06/20 06:32:42;;;;;;;4.03;3.70;;;25.40;94.00;;;;;;5031879;28;20894;-75
2021/06/20 06:35:09;;;;;;;3.70;3.27;;;25.40;94.00;;;;;;5052594;28;20453;-74
2021/06/20 06:37:35;;;;;;;4.57;3.77;;;25.40;94.00;;;;;;5049727;28;20467;-75
2021/06/20 06:40:03;;;;;;;4.80;3.50;;;25.50;94.00;;;;;;5016580;28;20449;-74
2021/06/20 06:42:29;;;;;;;4.90;3.73;;;25.50;94.00;;;;;;5036659;28;20905;-74
2021/06/20 06:44:56;;;;;;;3.40;3.10;;;25.60;94.00;;;;;;5035942;28;20544;-75
2021/06/20 06:47:23;;;;;;;3.10;2.90;;;25.60;94.00;;;;;;5067778;28;20215;-75
2021/06/20 06:49:49;;;;;;;5.63;3.63;;;25.60;93.90;;;;;;5049729;28;20464;-75
2021/06/20 06:52:16;;;;;;;5.10;3.00;;;25.60;93.80;;;;;;5052703;28;20453;-75
2021/06/20 06:54:50;;;;;;;3.30;3.00;;;25.60;93.60;;;;;;5052365;28;21011;-75
2021/06/20 06:57:20;;;;;;;5.13;3.20;;;25.60;93.50;;;;;;5032870;28;20969;-75
2021/06/20 06:59:47;;;;;;;4.80;3.40;;;25.60;93.60;;;;;;5035618;28;20515;-75
2021/06/20 07:02:13;;;;;;;4.43;4.00;;;25.60;93.50;;;;;;5049145;28;20446;-75
2021/06/20 07:04:39;;;;;;;2.90;2.70;;;25.70;93.50;;;;;;5068263;28;20552;-75
2021/06/20 07:07:05;;;;;;;3.57;3.27;;;25.70;93.40;;;;;;5034500;28;20461;-75
2021/06/20 07:09:31;;;;;;;4.90;4.50;;;25.80;93.50;;;;;;5021765;28;20465;-75
2021/06/20 07:11:58;;;;;;;3.77;3.10;;;25.80;93.20;;;;;;5051299;28;20228;-75
2021/06/20 07:14:24;;;;;;;4.87;3.50;;;25.70;92.90;;;;;;5065380;28;20226;-75
2021/06/20 07:16:50;;;;;;;3.03;2.80;;;25.70;92.90;;;;;;5039665;28;20466;-75
2021/06/20 07:19:15;;;;;;;8.60;3.30;;;25.70;92.90;;;;;;5036045;28;20979;-75
2021/06/20 07:21:41;;;;;;;3.60;3.30;;;25.70;92.90;;;;;;5059746;28;20210;-75
2021/06/20 07:24:07;;;;;;;3.70;3.40;;;25.80;93.10;;;;;;5034597;28;20210;-75
2021/06/20 07:26:33;;;;;;;3.93;2.87;;;25.80;93.10;;;;;;5054409;28;20647;-75
2021/06/20 07:28:59;;;;;;;3.50;3.20;;;25.90;93.10;;;;;;5012819;28;20458;-75
2021/06/20 07:31:25;;;;;;;3.00;2.80;;;25.90;93.00;;;;;;5034874;28;20369;-75
2021/06/20 07:33:51;;;;;;;3.57;3.23;;;25.90;92.80;;;;;;5035146;28;21097;-75
2021/06/20 07:36:16;;;;;;;3.23;3.03;;;25.90;92.70;;;;;;5020474;28;20673;-74
2021/06/20 07:38:43;;;;;;;3.10;2.90;;;25.90;92.70;;;;;;5026334;28;20226;-75
2021/06/20 07:41:09;;;;;;;3.20;2.90;;;26.00;92.70;;;;;;5049902;28;20293;-75
2021/06/20 07:43:36;;;;;;;2.97;2.77;;;26.00;92.60;;;;;;5040503;28;21061;-75
2021/06/20 07:46:02;;;;;;;3.50;3.20;;;26.10;92.60;;;;;;5039751;28;20670;-75
2021/06/20 07:48:29;;;;;;;5.77;2.97;;;26.10;92.60;;;;;;5061082;28;21009;-74
2021/06/20 07:50:55;;;;;;;2.80;2.60;;;26.20;92.60;;;;;;5049871;28;20465;-74
2021/06/20 07:53:21;;;;;;;3.40;3.10;;;26.30;92.50;;;;;;5050431;28;20833;-75
2021/06/20 07:55:47;;;;;;;4.50;3.10;;;26.30;92.40;;;;;;5047651;28;20457;-75
2021/06/20 07:58:13;;;;;;;3.40;3.10;;;26.30;92.10;;;;;;5039557;28;20586;-75
2021/06/20 08:00:40;;;;;;;4.40;3.20;;;26.30;92.20;;;;;;5050660;28;20888;-75
2021/06/20 08:03:06;;;;;;;5.17;3.13;;;26.30;92.20;;;;;;5031559;28;20242;-75
2021/06/20 08:05:32;;;;;;;3.00;2.80;;;26.30;92.10;;;;;;5019437;28;20482;-75
2021/06/20 08:07:59;;;;;;;3.53;3.10;;;26.30;92.20;;;;;;5051742;28;20231;-75
2021/06/20 08:10:25;;;;;;;4.20;3.80;;;26.40;92.30;;;;;;5047837;28;20476;-75
2021/06/20 08:12:50;;;;;;;3.27;3.07;;;26.50;92.30;;;;;;5032742;28;20268;-75
2021/06/20 08:15:16;;;;;;;3.83;3.40;;;26.50;92.10;;;;;;5034606;28;20211;-75
2021/06/20 08:17:42;;;;;;;3.20;2.90;;;26.60;92.10;;;;;;5035753;28;20227;-75
2021/06/20 08:20:11;;;;;;;4.93;3.50;;;26.60;92.20;;;;;;5051255;28;20314;-75
2021/06/20 08:22:38;;;;;;;6.47;3.53;;;26.70;92.20;;;;;;5067853;28;20449;-76
2021/06/20 08:25:06;;;;;;;3.67;3.37;;;26.80;92.10;;;;;;5048322;28;20886;-76
2021/06/20 08:27:32;;;;;;;4.10;3.63;;;26.80;91.90;;;;;;5018648;28;21036;-77
2021/06/20 08:29:57;;;;;;;4.50;3.13;;;26.80;91.90;;;;;;5011539;28;20454;-76
2021/06/20 08:32:24;;;;;;;4.20;3.47;;;26.80;91.90;;;;;;5007172;28;20268;-76
2021/06/20 08:34:51;;;;;;;4.00;3.70;;;26.90;92.00;;;;;;5031712;28;20338;-76
2021/06/20 08:37:17;;;;;;;3.70;3.50;;;26.90;92.00;;;;;;5034451;28;20865;-76
2021/06/20 08:39:43;;;;;;;4.63;4.30;;;27.00;91.90;;;;;;5034583;28;20543;-77
2021/06/20 08:42:09;;;;;;;3.43;3.13;;;27.10;91.50;;;;;;5024269;28;20215;-76
2021/06/20 08:44:34;;;;;;;5.47;4.23;;;27.10;91.50;;;;;;5049430;28;20242;-76
2021/06/20 08:47:02;;;;;;;3.90;3.60;;;27.10;91.20;;;;;;5030758;28;20254;-76
2021/06/20 08:49:30;;;;;;;4.37;4.07;;;27.20;91.20;;;;;;5030816;28;20223;-76
2021/06/20 08:51:58;;;;;;;4.53;3.77;;;27.30;91.20;;;;;;5029341;28;20452;-76
2021/06/20 08:54:24;;;;;;;4.37;3.97;;;27.40;91.10;;;;;;5029097;28;20997;-76
2021/06/20 08:56:51;;;;;;;5.67;4.27;;;27.50;90.80;;;;;;5066012;28;20926;-76
2021/06/20 08:59:21;;;;;;;4.47;4.00;;;27.60;90.50;;;;;;5046104;28;20450;-76
2021/06/20 09:01:47;;;;;;;3.97;3.43;;;27.60;90.50;;;;;;5046630;28;20472;-76
2021/06/20 09:04:27;;;;;;;4.33;3.93;;;27.70;90.40;;;;;;5046362;28;20453;-77
2021/06/20 09:06:53;;;;;;;4.80;3.97;;;27.80;89.60;;;;;;5030466;28;20485;-76
2021/06/20 09:09:37;;;;;;;3.77;3.47;;;27.90;90.00;;;;;;5064112;28;21132;-76
2021/06/20 09:12:12;;;;;;;4.43;3.33;;;27.90;89.60;;;;;;5066718;28;20261;-76
2021/06/20 09:14:48;;;;;;;4.57;4.10;;;28.00;88.60;;;;;;5050522;28;20479;-76
2021/06/20 09:17:28;;;;;;;3.30;3.10;;;28.00;88.40;;;;;;5045668;28;20268;-77
2021/06/20 09:20:02;;;;;;;4.00;3.70;;;28.10;88.10;;;;;;5029653;28;20219;-76
2021/06/20 09:22:29;;;;;;;3.73;3.43;;;28.10;87.50;;;;;;5030562;28;20253;-76
2021/06/20 09:25:11;;;;;;;4.40;4.00;;;28.20;87.90;;;;;;5032058;28;20999;-76
2021/06/20 09:27:37;;;;;;;4.50;4.10;;;28.20;87.40;;;;;;5058167;28;20510;-77
2021/06/20 09:30:11;;;;;;;3.90;3.50;;;28.30;87.70;;;;;;5049962;28;20210;-76
2021/06/20 09:32:56;;;;;;;4.47;3.90;;;28.30;86.30;;;;;;5032654;28;20248;-76
2021/06/20 09:35:22;;;;;;;4.15;3.85;;;28.30;87.00;;;;;;5054469;28;20447;-75
2021/06/20 09:37:56;;;;;;;4.83;3.90;;;28.30;86.50;;;;;;5033685;28;20361;-77
2021/06/20 09:40:26;;;;;;;5.07;3.70;;;28.30;86.20;;;;;;5027781;28;20302;-77
2021/06/20 09:42:52;;;;;;;6.20;3.63;;;28.30;86.60;;;;;;5047719;28;20310;-76
2021/06/20 09:45:29;;;;;;;4.10;3.80;;;28.30;86.70;;;;;;5015477;28;21029;-76
2021/06/20 09:47:59;;;;;;;5.70;3.73;;;28.30;86.70;;;;;;5042563;28;20223;-75
2021/06/20 09:50:40;;;;;;;3.63;3.43;;;28.40;86.80;;;;;;5053736;28;20235;-76
2021/06/20 09:53:07;;;;;;;5.13;4.63;;;28.40;86.60;;;;;;5039379;28;20832;-77
2021/06/20 09:55:34;;;;;;;3.73;3.43;;;28.50;86.50;;;;;;5039725;28;20583;-76
2021/06/20 09:58:01;;;;;;;4.97;4.00;;;28.50;85.40;;;;;;5030330;28;20274;-75
2021/06/20 10:00:40;;;;;;;3.53;3.22;;;28.50;85.70;;;;;;5043984;28;20597;-76
2021/06/20 10:03:06;;;;;;;5.73;3.30;;;28.60;86.10;;;;;;5047255;28;20226;-76
2021/06/20 10:05:32;;;;;;;3.70;3.43;;;28.60;85.90;;;;;;5049605;28;20210;-76
2021/06/20 10:08:00;;;;;;;4.10;3.80;;;28.70;86.00;;;;;;5039815;28;20230;-75
2021/06/20 10:10:26;;;;;;;4.93;3.53;;;28.70;85.50;;;;;;5041625;28;20254;-76
2021/06/20 10:12:52;;;;;;;4.03;3.72;;;28.80;84.70;;;;;;5054542;28;20226;-76
2021/06/20 10:15:19;;;;;;;5.07;4.15;;;28.80;84.30;;;;;;5021545;28;20225;-76
2021/06/20 10:17:54;;;;;;;3.88;3.60;;;28.90;83.80;;;;;;5055219;28;20206;-76
2021/06/20 10:20:21;;;;;;;3.60;3.30;;;29.00;83.90;;;;;;5052308;28;20222;-77
2021/06/20 10:22:49;;;;;;;4.00;3.67;;;29.00;83.90;;;;;;5053668;28;20217;-77
2021/06/20 10:25:39;;;;;;;3.85;3.63;;;29.00;84.10;;;;;;5044259;28;20223;-76
2021/06/20 10:28:11;;;;;;;3.88;3.60;;;29.10;84.10;;;;;;5054370;28;20222;-76
2021/06/20 10:30:36;;;;;;;4.53;4.13;;;29.10;84.00;;;;;;5033778;28;20242;-76
2021/06/20 10:33:25;;;;;;;4.25;3.95;;;29.20;84.20;;;;;;5053373;28;20276;-76
2021/06/20 10:36:10;;;;;;;3.85;3.55;;;29.30;84.60;;;;;;5070240;28;20214;-76
2021/06/20 10:38:41;;;;;;;4.10;3.80;;;29.40;84.50;;;;;;5041228;28;20210;-76
2021/06/20 10:41:21;;;;;;;3.95;3.65;;;29.50;83.60;;;;;;5039748;28;20218;-79
2021/06/20 10:44:13;;;;;;;4.78;3.67;;;29.50;83.80;;;;;;5049673;28;20206;-77
2021/06/20 10:46:41;;;;;;;4.22;3.92;;;29.70;84.30;;;;;;5019881;28;20227;-77
2021/06/20 10:49:18;;;;;;;3.90;3.58;;;29.70;84.40;;;;;;5018932;28;20219;-76
2021/06/20 10:51:45;;;;;;;3.58;3.38;;;29.70;84.00;;;;;;5037382;28;20271;-76
2021/06/20 10:54:29;;;;;;;5.95;3.72;;;29.80;84.20;;;;;;5052411;28;20238;-77
2021/06/20 10:57:00;;;;;;;4.35;3.72;;;29.90;84.40;;;;;;5050729;28;20223;-76
2021/06/20 10:59:27;;;;;;;4.22;3.83;;;30.00;83.90;;;;;;5036682;28;20258;-76
2021/06/20 11:01:53;;;;;;;3.58;3.28;;;30.20;83.70;;;;;;5031190;28;20218;-77
2021/06/20 11:04:19;;;;;;;4.15;3.85;;;30.30;83.10;;;;;;5042804;28;20219;-77
2021/06/20 11:06:58;;;;;;;4.30;4.00;;;30.40;83.10;;;;;;5037774;28;20210;-76
2021/06/20 11:09:35;;;;;;;3.58;3.38;;;30.40;83.00;;;;;;5049900;28;20239;-77
2021/06/20 11:12:11;;;;;;;4.03;3.63;;;30.50;83.00;;;;;;5047161;28;20221;-77
2021/06/20 11:14:45;;;;;;;4.32;3.92;;;30.60;83.10;;;;;;5051397;28;20234;-77
2021/06/20 11:17:12;;;;;;;4.68;3.40;;;30.70;83.10;;;;;;5067425;28;20273;-77
2021/06/20 11:19:38;;;;;;;3.90;3.60;;;30.80;83.30;;;;;;5052870;28;20222;-77
2021/06/20 11:22:08;;;;;;;4.28;3.97;;;30.90;83.10;;;;;;5071121;28;20685;-77
2021/06/20 11:24:47;;;;;;;4.43;4.07;;;31.10;83.50;;;;;;5053030;28;20301;-76
2021/06/20 11:27:16;;;;;;;3.80;3.50;;;31.20;82.90;;;;;;5048253;28;20392;-76
2021/06/20 11:29:56;;;;;;;4.10;3.70;;;31.30;82.20;;;;;;5045771;28;20653;-77
2021/06/20 11:32:24;;;;;;;4.10;3.80;;;31.40;82.30;;;;;;5036350;28;20210;-74
2021/06/20 11:34:55;;;;;;;3.63;3.33;;;31.50;81.90;;;;;;5051010;28;20288;-75
2021/06/20 11:37:27;;;;;;;3.80;3.45;;;31.60;81.20;;;;;;5050766;28;20219;-76
2021/06/20 11:40:01;;;;;;;4.10;3.70;;;31.60;81.40;;;;;;5062986;28;20314;-73
2021/06/20 11:42:32;;;;;;;3.80;3.33;;;31.70;80.40;;;;;;5065720;28;20261;-74
2021/06/20 11:45:01;;;;;;;3.50;3.30;;;31.70;81.20;;;;;;5052388;28;20218;-76
2021/06/20 11:47:41;;;;;;;3.88;3.55;;;31.70;81.10;;;;;;5035642;28;20226;-74
2021/06/20 11:50:13;;;;;;;4.05;3.67;;;31.70;80.60;;;;;;5043402;28;20222;-76
2021/06/20 11:52:39;;;;;;;3.90;3.55;;;31.60;80.70;;;;;;5051098;28;20770;-73
2021/06/20 11:55:21;;;;;;;3.30;3.10;;;31.70;78.90;;;;;;5060306;28;20218;-76
2021/06/20 11:57:48;;;;;;;3.63;3.42;;;31.80;78.50;;;;;;5050302;28;20206;-75
2021/06/20 12:00:20;;;;;;;4.45;3.15;;;31.80;77.60;;;;;;5049120;28;20214;-75
2021/06/20 12:03:02;;;;;;;3.50;3.20;;;31.80;78.40;;;;;;5050008;28;20577;-75
2021/06/20 12:05:30;;;;;;;3.60;3.30;;;31.80;78.60;;;;;;5052877;28;20240;-75
2021/06/20 12:08:04;;;;;;;3.25;3.03;;;31.80;77.80;;;;;;5060126;28;20231;-75
2021/06/20 12:10:31;;;;;;;3.53;3.33;;;31.90;77.20;;;;;;5067023;28;20761;-75
2021/06/20 12:13:05;;;;;;;3.30;3.05;;;32.10;76.40;;;;;;5047162;28;20222;-75
2021/06/20 12:15:33;;;;;;;5.82;3.38;;;32.20;76.70;;;;;;5047072;28;20211;-75
2021/06/20 12:18:08;;;;;;;3.78;3.50;;;32.20;76.80;;;;;;5035575;28;20287;-75
2021/06/20 12:20:37;;;;;;;4.28;3.97;;;32.20;76.50;;;;;;5030015;28;20237;-75
2021/06/20 12:23:05;;;;;;;4.15;3.85;;;32.30;76.60;;;;;;5048597;28;20283;-76
2021/06/20 12:25:48;;;;;;;3.92;3.70;;;32.30;75.90;;;;;;5035194;28;20294;-75
2021/06/20 12:28:16;;;;;;;6.10;4.05;;;32.30;75.50;;;;;;5064038;28;20306;-75
2021/06/20 12:30:43;;;;;;;5.07;4.57;;;32.30;75.20;;;;;;5067332;28;20234;-76
2021/06/20 12:33:13;;;;;;;4.32;3.97;;;32.20;75.10;;;;;;5020617;28;20227;-76
2021/06/20 12:35:39;;;;;;;4.60;3.45;;;32.20;75.60;;;;;;5057387;28;20690;-76
2021/06/20 12:38:16;;;;;;;3.47;3.28;;;32.20;76.10;;;;;;5029148;28;20223;-76
2021/06/20 12:40:42;;;;;;;3.88;3.58;;;32.20;75.70;;;;;;5048194;28;20211;-76
2021/06/20 12:43:16;;;;;;;4.10;3.80;;;32.20;75.70;;;;;;5054078;28;20222;-76
2021/06/20 12:45:43;;;;;;;4.00;3.70;;;32.30;76.40;;;;;;5039066;28;20217;-75
2021/06/20 12:48:16;;;;;;;4.28;3.38;;;32.30;76.30;;;;;;5043716;28;20227;-75
2021/06/20 12:51:00;;;;;;;4.15;3.75;;;32.30;76.70;;;;;;5054202;28;20225;-75